createdAt,value
2023-01-01T00:01:32.513Z,79.60
2023-01-01T00:04:03.321Z,80.10
2023-01-01T00:06:33.622Z,81.00
2023-01-01T00:09:22.062Z,80.00
2023-01-01T00:11:52.371Z,79.30
2023-01-01T00:14:22.793Z,79.50
2023-01-01T00:16:54.728Z,79.00
2023-01-01T00:19:25.612Z,79.60
2023-01-01T00:21:56.393Z,79.50
2023-01-01T00:24:27.074Z,77.30
2023-01-01T00:26:58.316Z,75.70
2023-01-01T00:29:28.557Z,76.10
2023-01-01T00:31:59.062Z,74.70
2023-01-01T00:34:29.371Z,73.70
2023-01-01T00:37:00.949Z,74.90
2023-01-01T00:39:31.599Z,73.60
2023-01-01T00:42:02.442Z,71.70
2023-01-01T00:44:34.049Z,72.20
2023-01-01T00:47:04.905Z,71.70
2023-01-01T00:49:35.634Z,70.00
2023-01-01T00:52:06.125Z,70.00
2023-01-01T00:54:36.409Z,69.50
2023-01-01T00:57:07.152Z,68.70
2023-01-01T00:59:37.537Z,67.60
2023-01-01T01:02:08.203Z,67.70
2023-01-01T01:04:38.791Z,66.10
2023-01-01T01:07:09.203Z,64.30
2023-01-01T01:09:39.542Z,66.10
2023-01-01T01:12:18.160Z,65.20
2023-01-01T01:14:50.431Z,66.40
2023-01-01T01:17:21.133Z,66.50
2023-01-01T01:19:51.435Z,67.40
2023-01-01T01:22:27.802Z,65.50
2023-01-01T01:24:59.697Z,66.00
2023-01-01T01:27:30.223Z,65.10
2023-01-01T01:30:00.531Z,64.60
2023-01-01T01:32:31.144Z,64.70
2023-01-01T01:35:01.389Z,64.30
2023-01-01T01:37:31.889Z,65.10
2023-01-01T01:40:02.588Z,64.50
2023-01-01T01:42:32.944Z,66.10
2023-01-01T01:45:08.477Z,65.10
2023-01-01T01:47:51.942Z,66.10
2023-01-01T01:50:34.496Z,65.60
2023-01-01T01:53:13.118Z,66.80
2023-01-01T01:55:53.158Z,65.10
2023-01-01T01:58:23.945Z,65.00
2023-01-01T02:00:54.906Z,65.00
2023-01-01T02:03:50.954Z,65.00
2023-01-01T02:06:23.207Z,63.70
2023-01-01T02:08:54.520Z,62.80
2023-01-01T02:11:25.469Z,64.40
2023-01-01T02:13:56.843Z,66.00
2023-01-01T02:16:39.740Z,67.20
2023-01-01T02:19:37.367Z,65.50
2023-01-01T02:22:15.807Z,66.20
2023-01-01T02:24:52.181Z,65.70
2023-01-01T02:28:01.489Z,64.40
2023-01-01T02:30:34.866Z,64.10
2023-01-01T02:33:13.891Z,63.60
2023-01-01T02:36:05.122Z,63.50
2023-01-01T02:38:43.083Z,61.90
2023-01-01T02:41:25.722Z,63.00
2023-01-01T02:46:26.778Z,61.80
2023-01-01T02:48:57.028Z,59.60
2023-01-01T02:51:30.383Z,61.40
2023-01-01T02:54:15.712Z,60.90
2023-01-01T02:57:03.672Z,61.10
2023-01-01T03:00:20.242Z,61.20
2023-01-01T03:03:09.043Z,61.00
2023-01-01T03:06:15.643Z,61.10
2023-01-01T03:08:55.991Z,62.00
2023-01-01T03:11:28.909Z,61.90
2023-01-01T03:14:37.985Z,61.60
2023-01-01T03:17:31.223Z,60.90
2023-01-01T03:20:07.132Z,61.60
2023-01-01T03:25:26.764Z,63.50
2023-01-01T03:28:05.609Z,63.30
2023-01-01T03:30:37.756Z,64.40
2023-01-01T03:33:29.669Z,64.00
2023-01-01T03:36:34.357Z,63.60
2023-01-01T03:39:31.733Z,65.60
2023-01-01T03:42:10.849Z,65.80
2023-01-01T03:44:59.708Z,65.10
2023-01-01T03:47:30.950Z,64.30
2023-01-01T03:50:02.422Z,65.50
2023-01-01T03:52:44.922Z,66.90
2023-01-01T03:55:21.827Z,66.30
2023-01-01T03:58:23.004Z,65.70
2023-01-01T04:01:05.196Z,65.10
2023-01-01T04:03:38.881Z,64.50
2023-01-01T04:06:10.563Z,63.90
2023-01-01T04:08:41.575Z,64.60
2023-01-01T04:11:37.082Z,64.00
2023-01-01T04:14:07.511Z,64.40
2023-01-01T04:16:37.951Z,64.20
2023-01-01T04:19:11.422Z,64.50
2023-01-01T04:21:41.731Z,63.90
2023-01-01T04:24:12.335Z,63.90
2023-01-01T04:26:43.227Z,64.00
2023-01-01T04:29:13.696Z,62.80
2023-01-01T04:31:43.972Z,62.50
2023-01-01T04:34:14.277Z,62.90
2023-01-01T04:36:45.076Z,62.70
2023-01-01T04:39:15.322Z,62.20
2023-01-01T04:41:45.679Z,62.40
2023-01-01T04:44:16.027Z,63.30
2023-01-01T04:46:46.543Z,64.10
2023-01-01T04:49:16.983Z,63.90
2023-01-01T04:51:47.488Z,63.10
2023-01-01T04:54:17.969Z,64.40
2023-01-01T04:56:48.291Z,65.70
2023-01-01T04:59:18.636Z,67.10
2023-01-01T05:01:49.358Z,68.20
2023-01-01T05:04:20.347Z,67.90
2023-01-01T05:06:50.694Z,68.40
2023-01-01T05:09:21.036Z,68.20
2023-01-01T05:11:51.307Z,69.20
2023-01-01T05:14:21.692Z,70.30
2023-01-01T05:16:51.971Z,70.60
2023-01-01T05:19:22.301Z,70.80
2023-01-01T05:21:52.686Z,71.80
2023-01-01T05:24:22.960Z,71.90
2023-01-01T05:26:54.935Z,72.50
2023-01-01T05:29:26.192Z,72.50
2023-01-01T05:31:56.628Z,71.40
2023-01-01T05:34:27.227Z,72.60
2023-01-01T05:36:58.133Z,72.00
2023-01-01T05:39:28.579Z,72.40
2023-01-01T05:41:59.404Z,72.30
2023-01-01T05:44:29.870Z,71.60
2023-01-01T05:47:00.480Z,71.80
2023-01-01T05:49:30.879Z,71.60
2023-01-01T05:52:01.379Z,71.20
2023-01-01T05:54:31.800Z,71.40
2023-01-01T05:57:02.414Z,70.60
2023-01-01T05:59:32.788Z,70.70
2023-01-01T06:02:03.455Z,70.10
2023-01-01T06:04:33.931Z,70.90
2023-01-01T06:07:04.508Z,70.70
2023-01-01T06:12:18.135Z,69.80
2023-01-01T06:14:49.511Z,69.20
2023-01-01T06:17:19.866Z,69.70
2023-01-01T06:19:50.430Z,71.00
2023-01-01T06:22:20.807Z,69.70
2023-01-01T06:24:51.573Z,70.00
2023-01-01T06:27:22.399Z,71.40
2023-01-01T06:29:52.666Z,69.10
2023-01-01T06:32:23.598Z,69.80
2023-01-01T06:34:54.002Z,68.60
2023-01-01T06:37:24.502Z,68.70
2023-01-01T06:39:54.835Z,68.00
2023-01-01T06:42:29.027Z,66.60
2023-01-01T06:45:02.286Z,66.80
2023-01-01T06:47:35.590Z,66.30
2023-01-01T06:50:06.782Z,66.10
2023-01-01T06:52:37.545Z,64.80
2023-01-01T06:55:08.318Z,65.10
2023-01-01T06:57:38.966Z,65.50
2023-01-01T07:00:09.942Z,64.60
2023-01-01T07:02:40.446Z,63.30
2023-01-01T07:05:11.098Z,64.30
2023-01-01T07:07:42.377Z,64.60
2023-01-01T07:10:12.701Z,65.40
2023-01-01T07:12:43.118Z,66.40
2023-01-01T07:15:13.838Z,66.30
2023-01-01T07:17:44.115Z,64.70
2023-01-01T07:20:14.491Z,65.50
2023-01-01T07:22:45.455Z,66.60
2023-01-01T07:25:18.664Z,67.70
2023-01-01T07:27:50.009Z,68.10
2023-01-01T07:30:20.508Z,68.40
2023-01-01T07:32:56.873Z,69.60
2023-01-01T07:35:26.486Z,70.50
2023-01-01T07:37:56.814Z,71.30
2023-01-01T07:40:27.043Z,71.50
2023-01-01T07:42:57.822Z,71.70
2023-01-01T07:45:28.513Z,72.90
2023-01-01T07:48:01.405Z,72.30
2023-01-01T07:50:35.070Z,72.10
2023-01-01T07:53:05.507Z,72.60
2023-01-01T07:55:39.273Z,72.00
2023-01-01T07:58:09.756Z,71.60
2023-01-01T08:00:40.753Z,72.40
2023-01-01T08:03:13.552Z,73.70
2023-01-01T08:05:44.307Z,73.10
2023-01-01T08:08:21.018Z,73.10
2023-01-01T08:10:52.159Z,73.30
2023-01-01T08:13:22.407Z,72.80
2023-01-01T08:15:53.399Z,73.30
2023-01-01T08:18:23.859Z,74.20
2023-01-01T08:20:54.198Z,74.00
2023-01-01T08:23:24.559Z,74.30
2023-01-01T08:25:55.432Z,74.10
2023-01-01T08:28:26.328Z,74.50
2023-01-01T08:30:57.323Z,73.80
2023-01-01T08:33:28.996Z,74.00
2023-01-01T08:36:01.057Z,74.80
2023-01-01T08:38:31.345Z,74.00
2023-01-01T08:41:01.563Z,74.50
2023-01-01T08:43:31.918Z,74.80
2023-01-01T08:46:02.528Z,74.90
2023-01-01T08:48:34.590Z,75.20
2023-01-01T08:51:05.216Z,76.00
2023-01-01T08:53:36.421Z,76.60
2023-01-01T08:56:10.620Z,76.70
2023-01-01T08:58:43.107Z,77.30
2023-01-01T09:01:15.230Z,77.70
2023-01-01T09:03:46.867Z,77.90
2023-01-01T09:06:18.025Z,78.20
2023-01-01T09:08:48.868Z,78.90
2023-01-01T09:11:30.634Z,79.10
2023-01-01T09:14:02.346Z,79.70
2023-01-01T09:16:32.700Z,80.20
2023-01-01T09:19:02.959Z,82.10
2023-01-01T09:21:33.183Z,83.30
2023-01-01T09:24:03.466Z,84.90
2023-01-01T09:26:33.826Z,85.40
2023-01-01T09:29:04.124Z,85.50
2023-01-01T09:31:34.423Z,85.70
2023-01-01T09:34:04.833Z,86.50
2023-01-01T09:36:36.995Z,86.80
2023-01-01T09:39:08.521Z,87.70
2023-01-01T09:41:59.920Z,88.50
2023-01-01T09:45:04.546Z,87.60
2023-01-01T09:47:46.402Z,89.00
2023-01-01T09:50:45.982Z,87.90
2023-01-01T09:53:34.004Z,88.40
2023-01-01T09:56:07.224Z,88.70
2023-01-01T09:58:40.792Z,89.30
2023-01-01T10:01:47.416Z,89.70
2023-01-01T10:04:53.707Z,90.10
2023-01-01T10:07:49.307Z,89.60
2023-01-01T10:10:42.387Z,90.00
2023-01-01T10:13:34.929Z,89.40
2023-01-01T10:16:24.936Z,89.20
2023-01-01T10:18:59.927Z,89.70
2023-01-01T10:21:33.768Z,89.50
2023-01-01T10:24:17.467Z,89.40
2023-01-01T10:26:50.576Z,89.50
2023-01-01T10:29:48.199Z,89.90
2023-01-01T10:32:50.717Z,89.80
2023-01-01T10:35:36.085Z,89.80
2023-01-01T10:38:09.045Z,90.10
2023-01-01T10:40:40.576Z,90.10
2023-01-01T10:43:15.985Z,90.00
2023-01-01T10:45:58.089Z,90.30
2023-01-01T10:48:32.345Z,90.30
2023-01-01T10:51:05.574Z,90.30
2023-01-01T10:54:04.360Z,90.30
2023-01-01T10:56:46.847Z,90.30
2023-01-01T10:59:38.582Z,90.20
2023-01-01T11:02:34.130Z,90.00
2023-01-01T11:05:23.547Z,90.10
2023-01-01T11:07:55.240Z,90.20
2023-01-01T11:10:33.641Z,90.20
2023-01-01T11:13:05.616Z,90.20
2023-01-01T11:15:44.084Z,90.40
2023-01-01T11:18:27.783Z,90.50
2023-01-01T11:21:00.386Z,90.30
2023-01-01T11:23:42.431Z,90.40
2023-01-01T11:26:17.531Z,90.30
2023-01-01T11:29:19.540Z,90.40
2023-01-01T11:31:51.581Z,90.20
2023-01-01T11:34:25.368Z,90.20
2023-01-01T11:37:08.958Z,90.30
2023-01-01T11:39:40.689Z,90.20
2023-01-01T11:42:12.269Z,90.20
2023-01-01T11:44:49.960Z,90.20
2023-01-01T11:47:44.363Z,90.30
2023-01-01T11:50:35.461Z,90.50
2023-01-01T11:53:27.745Z,90.60
2023-01-01T11:56:12.993Z,90.60
2023-01-01T11:59:04.666Z,90.60
2023-01-01T12:02:07.508Z,90.80
2023-01-01T12:04:53.481Z,90.70
2023-01-01T12:07:33.276Z,90.70
2023-01-01T12:10:34.751Z,90.70
2023-01-01T12:13:15.539Z,90.70
2023-01-01T12:16:04.334Z,90.60
2023-01-01T12:18:52.126Z,90.80
2023-01-01T12:21:30.746Z,90.80
2023-01-01T12:24:01.458Z,90.90
2023-01-01T12:26:32.895Z,90.90
2023-01-01T12:29:31.666Z,90.90
2023-01-01T12:32:10.138Z,90.90
2023-01-01T12:35:23.552Z,91.00
2023-01-01T12:38:17.671Z,91.00
2023-01-01T12:41:09.038Z,91.00
2023-01-01T12:43:59.688Z,91.10
2023-01-01T12:46:36.031Z,91.00
2023-01-01T12:49:33.980Z,90.90
2023-01-01T12:52:30.137Z,90.80
2023-01-01T12:55:03.373Z,90.60
2023-01-01T12:57:40.112Z,90.60
2023-01-01T13:00:19.367Z,90.50
2023-01-01T13:03:00.605Z,90.50
2023-01-01T13:05:46.756Z,90.50
2023-01-01T13:08:19.890Z,90.40
2023-01-01T13:10:54.083Z,90.40
2023-01-01T13:13:25.562Z,90.30
2023-01-01T13:16:00.334Z,90.30
2023-01-01T13:18:40.405Z,90.30
2023-01-01T13:21:31.597Z,90.30
2023-01-01T13:24:13.924Z,90.10
2023-01-01T13:26:46.401Z,90.10
2023-01-01T13:29:17.162Z,90.10
2023-01-01T13:31:47.696Z,90.10
2023-01-01T13:34:37.664Z,90.10
2023-01-01T13:37:16.944Z,90.00
2023-01-01T13:40:00.613Z,90.10
2023-01-01T13:43:00.712Z,90.10
2023-01-01T13:48:32.488Z,90.10
2023-01-01T13:51:03.104Z,90.00
2023-01-01T13:53:43.463Z,89.90
2023-01-01T13:56:27.729Z,89.50
2023-01-01T13:59:22.498Z,89.50
2023-01-01T14:01:56.045Z,89.10
2023-01-01T14:04:49.105Z,89.20
2023-01-01T14:07:50.755Z,88.90
2023-01-01T14:10:37.177Z,88.70
2023-01-01T14:13:10.505Z,89.10
2023-01-01T14:15:46.270Z,89.30
2023-01-01T14:18:19.805Z,88.70
2023-01-01T14:20:54.023Z,88.20
2023-01-01T14:23:38.170Z,88.20
2023-01-01T14:26:19.135Z,88.40
2023-01-01T14:28:50.436Z,88.70
2023-01-01T14:31:25.047Z,88.90
2023-01-01T14:33:56.103Z,88.30
2023-01-01T14:36:32.535Z,87.60
2023-01-01T14:39:05.570Z,87.60
2023-01-01T14:41:45.873Z,88.00
2023-01-01T14:44:18.976Z,87.60
2023-01-01T14:46:54.703Z,87.70
2023-01-01T14:49:33.020Z,87.40
2023-01-01T14:52:21.767Z,87.00
2023-01-01T14:54:52.799Z,87.10
2023-01-01T14:57:29.512Z,87.40
2023-01-01T14:59:59.917Z,87.50
2023-01-01T15:02:39.933Z,87.10
2023-01-01T15:05:35.334Z,87.00
2023-01-01T15:08:24.473Z,87.10
2023-01-01T15:10:55.820Z,86.90
2023-01-01T15:13:28.973Z,87.20
2023-01-01T15:16:17.875Z,87.10
2023-01-01T15:18:50.063Z,87.20
2023-01-01T15:21:40.053Z,87.10
2023-01-01T15:24:22.490Z,87.20
2023-01-01T15:26:58.840Z,87.20
2023-01-01T15:29:43.786Z,86.90
2023-01-01T15:32:17.431Z,87.50
2023-01-01T15:34:55.110Z,88.30
2023-01-01T15:37:49.747Z,88.00
2023-01-01T15:40:19.973Z,87.90
2023-01-01T15:43:15.920Z,87.60
2023-01-01T15:46:14.103Z,87.30
2023-01-01T15:49:24.337Z,87.80
2023-01-01T15:52:01.079Z,87.10
2023-01-01T15:54:33.174Z,87.20
2023-01-01T15:57:03.867Z,87.30
2023-01-01T15:59:38.308Z,87.30
2023-01-01T16:02:22.506Z,87.80
2023-01-01T16:04:54.173Z,87.60
2023-01-01T16:07:26.776Z,88.00
2023-01-01T16:09:58.372Z,87.80
2023-01-01T16:12:28.918Z,87.60
2023-01-01T16:14:59.270Z,87.60
2023-01-01T16:17:30.144Z,87.30
2023-01-01T16:20:00.473Z,87.10
2023-01-01T16:22:34.862Z,87.00
2023-01-01T16:25:22.304Z,87.10
2023-01-01T16:27:52.825Z,87.50
2023-01-01T16:30:27.405Z,87.50
2023-01-01T16:32:58.903Z,87.50
2023-01-01T16:35:29.674Z,87.80
2023-01-01T16:38:00.009Z,87.70
2023-01-01T16:40:37.285Z,87.80
2023-01-01T16:43:17.393Z,88.00
2023-01-01T16:45:48.134Z,87.90
2023-01-01T16:48:18.481Z,88.20
2023-01-01T16:50:52.540Z,88.00
2023-01-01T16:53:23.031Z,88.00
2023-01-01T16:55:54.528Z,88.30
2023-01-01T17:01:16.555Z,87.70
2023-01-01T17:03:48.360Z,87.50
2023-01-01T17:06:19.366Z,87.30
2023-01-01T17:08:50.528Z,87.30
2023-01-01T17:11:22.230Z,87.30
2023-01-01T17:13:52.739Z,86.90
2023-01-01T17:16:27.977Z,87.00
2023-01-01T17:19:16.594Z,87.30
2023-01-01T17:21:49.099Z,87.50
2023-01-01T17:24:22.081Z,87.80
2023-01-01T17:26:58.402Z,87.60
2023-01-01T17:29:29.548Z,87.90
2023-01-01T17:32:00.331Z,87.50
2023-01-01T17:34:30.902Z,87.90
2023-01-01T17:37:01.203Z,86.90
2023-01-01T17:39:31.604Z,87.40
2023-01-01T17:42:03.883Z,87.10
2023-01-01T17:44:34.959Z,87.40
2023-01-01T17:47:05.709Z,87.70
2023-01-01T17:49:37.579Z,87.50
2023-01-01T17:52:08.610Z,87.90
2023-01-01T17:54:38.981Z,87.80
2023-01-01T17:57:09.191Z,87.70
2023-01-01T17:59:40.105Z,87.90
2023-01-01T18:02:17.032Z,87.50
2023-01-01T18:04:47.527Z,87.30
2023-01-01T18:07:17.767Z,87.70
2023-01-01T18:09:48.539Z,87.60
2023-01-01T18:12:19.290Z,88.10
2023-01-01T18:14:50.140Z,88.00
2023-01-01T18:17:20.426Z,87.70
2023-01-01T18:19:51.429Z,88.10
2023-01-01T18:22:21.783Z,88.40
2023-01-01T18:24:52.320Z,88.50
2023-01-01T18:27:23.148Z,88.60
2023-01-01T18:29:53.543Z,88.40
2023-01-01T18:32:24.258Z,88.20
2023-01-01T18:34:54.548Z,88.00
2023-01-01T18:37:25.411Z,88.10
2023-01-01T18:39:56.080Z,88.50
2023-01-01T18:42:46.331Z,88.20
2023-01-01T18:45:25.598Z,88.70
2023-01-01T18:47:57.431Z,88.60
2023-01-01T18:50:31.429Z,88.50
2023-01-01T18:53:18.633Z,88.60
2023-01-01T18:56:13.415Z,88.10
2023-01-01T18:58:45.928Z,88.30
2023-01-01T19:01:20.378Z,88.70
2023-01-01T19:04:01.112Z,88.70
2023-01-01T19:06:34.546Z,88.70
2023-01-01T19:09:22.940Z,88.00
2023-01-01T19:11:56.085Z,88.20
2023-01-01T19:14:34.346Z,88.10
2023-01-01T19:17:14.396Z,88.10
2023-01-01T19:19:44.951Z,88.20
2023-01-01T19:22:32.273Z,87.70
2023-01-01T19:25:05.958Z,88.20
2023-01-01T19:27:37.817Z,88.00
2023-01-01T19:30:27.333Z,87.90
2023-01-01T19:32:57.743Z,88.10
2023-01-01T19:35:28.079Z,88.60
2023-01-01T19:37:58.456Z,87.90
2023-01-01T19:40:28.714Z,87.80
2023-01-01T19:43:00.403Z,88.10
2023-01-01T19:45:30.769Z,87.90
2023-01-01T19:48:01.108Z,87.90
2023-01-01T19:50:31.852Z,87.60
2023-01-01T19:53:02.699Z,88.10
2023-01-01T19:55:32.941Z,88.50
2023-01-01T19:58:03.894Z,88.30
2023-01-01T20:00:34.614Z,88.40
2023-01-01T20:03:42.746Z,88.60
2023-01-01T20:05:56.710Z,89.30
2023-01-01T20:08:31.601Z,89.10
2023-01-01T20:11:02.524Z,89.60
2023-01-01T20:13:33.277Z,89.60
2023-01-01T20:16:05.037Z,88.50
2023-01-01T20:18:35.941Z,88.60
2023-01-01T20:21:26.602Z,88.60
2023-01-01T20:23:58.399Z,89.00
2023-01-01T20:26:29.133Z,88.20
2023-01-01T20:29:17.662Z,88.20
2023-01-01T20:31:48.641Z,88.70
2023-01-01T20:34:20.598Z,87.30
2023-01-01T20:37:09.824Z,88.30
2023-01-01T20:39:40.914Z,88.10
2023-01-01T20:42:11.611Z,88.00
2023-01-01T20:44:44.467Z,87.80
2023-01-01T20:47:16.196Z,87.80
2023-01-01T20:49:47.018Z,87.50
2023-01-01T20:52:17.405Z,87.90
2023-01-01T20:54:49.185Z,87.30
2023-01-01T20:57:19.850Z,87.50
2023-01-01T20:59:51.161Z,87.30
2023-01-01T21:02:22.100Z,86.50
2023-01-01T21:04:55.106Z,86.40
2023-01-01T21:07:25.428Z,86.00
2023-01-01T21:09:55.693Z,84.90
2023-01-01T21:12:26.002Z,84.70
2023-01-01T21:14:59.113Z,83.90
2023-01-01T21:17:30.846Z,83.60
2023-01-01T21:20:01.674Z,84.30
2023-01-01T21:22:32.381Z,84.30
2023-01-01T21:25:50.633Z,84.10
2023-01-01T21:28:17.607Z,83.20
2023-01-01T21:30:59.146Z,83.40
2023-01-01T21:33:34.491Z,82.20
2023-01-01T21:36:21.567Z,81.50
2023-01-01T21:38:54.047Z,81.60
2023-01-01T21:41:28.647Z,82.10
2023-01-01T21:44:00.720Z,81.80
2023-01-01T21:46:37.909Z,81.00
2023-01-01T21:49:46.499Z,80.60
2023-01-01T21:52:27.504Z,79.00
2023-01-01T21:54:59.959Z,79.20
2023-01-01T21:57:31.820Z,78.20
2023-01-01T22:00:03.959Z,76.50
2023-01-01T22:02:37.635Z,76.20
2023-01-01T22:05:32.388Z,75.00
2023-01-01T22:08:27.704Z,74.20
2023-01-01T22:11:00.203Z,73.50
2023-01-01T22:13:31.672Z,72.90
2023-01-01T22:16:01.971Z,70.80
2023-01-01T22:18:33.328Z,72.20
2023-01-01T22:21:05.668Z,71.40
2023-01-01T22:23:40.815Z,70.90
2023-01-01T22:26:21.875Z,70.20
2023-01-01T22:29:04.615Z,69.00
2023-01-01T22:31:37.940Z,67.80
2023-01-01T22:34:24.373Z,67.70
2023-01-01T22:36:54.835Z,68.10
2023-01-01T22:39:42.959Z,68.20
2023-01-01T22:42:21.485Z,67.20
2023-01-01T22:45:01.465Z,68.00
2023-01-01T22:47:39.667Z,67.80
2023-01-01T22:50:18.046Z,68.30
2023-01-01T22:52:48.773Z,68.10
2023-01-01T22:55:19.842Z,67.50
2023-01-01T22:57:50.086Z,67.30
2023-01-01T23:00:25.278Z,68.00
2023-01-01T23:02:58.989Z,67.90
2023-01-01T23:05:29.490Z,68.10
2023-01-01T23:08:00.541Z,68.20
2023-01-01T23:10:31.554Z,68.40
2023-01-01T23:13:25.114Z,68.00
2023-01-01T23:16:03.421Z,68.20
2023-01-01T23:18:36.759Z,68.00
2023-01-01T23:21:26.315Z,68.50
2023-01-01T23:24:00.564Z,68.10
2023-01-01T23:26:31.143Z,67.60
2023-01-01T23:29:02.022Z,67.40
2023-01-01T23:31:34.737Z,67.40
2023-01-01T23:34:05.156Z,67.20
2023-01-01T23:36:36.447Z,67.00
2023-01-01T23:39:06.762Z,67.00
2023-01-01T23:41:37.563Z,67.20
2023-01-01T23:44:08.000Z,66.80
2023-01-01T23:46:39.557Z,66.10
2023-01-01T23:49:10.599Z,67.10
2023-01-01T23:51:42.343Z,66.10
2023-01-01T23:54:13.072Z,66.20
2023-01-01T23:56:43.609Z,65.50
2023-01-01T23:59:14.069Z,65.80
